sensor_id;sensor_type;location;lat;lon;timestamp;P1;durP1;ratioP1;P2;durP2;ratioP2
1154;SDS011;566;48.414;9.118;2022-09-17T00:00:38;3.85;;;1.70;;
1154;SDS011;566;48.414;9.118;2022-09-17T00:03:05;3.92;;;1.63;;
1154;SDS011;566;48.414;9.118;2022-09-17T00:05:36;4.30;;;2.03;;
1154;SDS011;566;48.414;9.118;2022-09-17T00:08:02;5.95;;;1.85;;
1154;SDS011;566;48.414;9.118;2022-09-17T00:10:29;4.93;;;1.73;;
1154;SDS011;566;48.414;9.118;2022-09-17T00:12:56;4.03;;;1.60;;
1154;SDS011;566;48.414;9.118;2022-09-17T00:15:22;4.45;;;1.80;;
1154;SDS011;566;48.414;9.118;2022-09-17T00:17:54;3.83;;;2.00;;
1154;SDS011;566;48.414;9.118;2022-09-17T00:20:23;7.00;;;1.90;;
1154;SDS011;566;48.414;9.118;2022-09-17T00:22:50;3.85;;;1.80;;
1154;SDS011;566;48.414;9.118;2022-09-17T00:25:16;3.45;;;1.60;;
1154;SDS011;566;48.414;9.118;2022-09-17T00:27:43;4.80;;;1.77;;
1154;SDS011;566;48.414;9.118;2022-09-17T00:30:09;4.57;;;1.85;;
1154;SDS011;566;48.414;9.118;2022-09-17T00:32:42;4.10;;;2.05;;
1154;SDS011;566;48.414;9.118;2022-09-17T00:35:08;4.35;;;2.30;;
1154;SDS011;566;48.414;9.118;2022-09-17T00:37:34;4.90;;;2.22;;
1154;SDS011;566;48.414;9.118;2022-09-17T00:40:02;4.38;;;1.98;;
1154;SDS011;566;48.414;9.118;2022-09-17T00:42:28;4.25;;;1.88;;
1154;SDS011;566;48.414;9.118;2022-09-17T00:45:00;3.67;;;1.90;;
1154;SDS011;566;48.414;9.118;2022-09-17T00:47:27;4.82;;;2.30;;
1154;SDS011;566;48.414;9.118;2022-09-17T00:52:31;4.75;;;1.90;;
1154;SDS011;566;48.414;9.118;2022-09-17T00:57:37;4.75;;;2.30;;
1154;SDS011;566;48.414;9.118;2022-09-17T01:00:07;7.28;;;2.58;;
1154;SDS011;566;48.414;9.118;2022-09-17T01:02:34;4.85;;;2.35;;
1154;SDS011;566;48.414;9.118;2022-09-17T01:05:00;3.88;;;2.10;;
1154;SDS011;566;48.414;9.118;2022-09-17T01:07:33;6.45;;;2.53;;
1154;SDS011;566;48.414;9.118;2022-09-17T01:15:54;5.72;;;2.40;;
1154;SDS011;566;48.414;9.118;2022-09-17T01:24:53;4.43;;;2.05;;
1154;SDS011;566;48.414;9.118;2022-09-17T01:30:52;5.18;;;2.30;;
1154;SDS011;566;48.414;9.118;2022-09-17T01:33:50;5.38;;;2.65;;
1154;SDS011;566;48.414;9.118;2022-09-17T01:39:34;3.83;;;2.20;;
1154;SDS011;566;48.414;9.118;2022-09-17T01:44:43;4.57;;;2.10;;
1154;SDS011;566;48.414;9.118;2022-09-17T01:47:36;4.22;;;2.17;;
1154;SDS011;566;48.414;9.118;2022-09-17T01:50:14;8.23;;;3.22;;
1154;SDS011;566;48.414;9.118;2022-09-17T01:55:14;14.20;;;3.03;;
1154;SDS011;566;48.414;9.118;2022-09-17T01:57:46;7.97;;;2.50;;
1154;SDS011;566;48.414;9.118;2022-09-17T02:00:13;6.38;;;2.65;;
1154;SDS011;566;48.414;9.118;2022-09-17T02:02:49;4.30;;;2.40;;
1154;SDS011;566;48.414;9.118;2022-09-17T02:05:24;4.40;;;2.10;;
1154;SDS011;566;48.414;9.118;2022-09-17T02:08:05;5.43;;;2.67;;
1154;SDS011;566;48.414;9.118;2022-09-17T02:10:41;6.90;;;2.65;;
1154;SDS011;566;48.414;9.118;2022-09-17T02:13:14;4.40;;;2.85;;
1154;SDS011;566;48.414;9.118;2022-09-17T02:15:46;5.57;;;2.83;;
1154;SDS011;566;48.414;9.118;2022-09-17T02:21:01;4.70;;;2.97;;
1154;SDS011;566;48.414;9.118;2022-09-17T02:23:34;4.13;;;2.70;;
1154;SDS011;566;48.414;9.118;2022-09-17T02:26:11;6.05;;;3.13;;
1154;SDS011;566;48.414;9.118;2022-09-17T02:28:41;4.65;;;3.13;;
1154;SDS011;566;48.414;9.118;2022-09-17T02:31:12;5.43;;;3.22;;
1154;SDS011;566;48.414;9.118;2022-09-17T02:33:38;5.65;;;3.22;;
1154;SDS011;566;48.414;9.118;2022-09-17T02:36:08;6.57;;;3.00;;
1154;SDS011;566;48.414;9.118;2022-09-17T02:38:34;3.90;;;2.70;;
1154;SDS011;566;48.414;9.118;2022-09-17T02:41:03;4.53;;;2.97;;
1154;SDS011;566;48.414;9.118;2022-09-17T02:49:49;5.05;;;3.00;;
1154;SDS011;566;48.414;9.118;2022-09-17T03:00:41;5.53;;;2.95;;
1154;SDS011;566;48.414;9.118;2022-09-17T03:03:16;5.15;;;3.20;;
1154;SDS011;566;48.414;9.118;2022-09-17T03:08:28;5.63;;;3.17;;
1154;SDS011;566;48.414;9.118;2022-09-17T03:11:03;6.80;;;3.80;;
1154;SDS011;566;48.414;9.118;2022-09-17T03:13:30;6.95;;;3.60;;
1154;SDS011;566;48.414;9.118;2022-09-17T03:15:55;9.02;;;3.70;;
1154;SDS011;566;48.414;9.118;2022-09-17T03:18:22;6.40;;;3.40;;
1154;SDS011;566;48.414;9.118;2022-09-17T03:20:48;5.80;;;3.55;;
1154;SDS011;566;48.414;9.118;2022-09-17T03:23:14;6.10;;;3.90;;
1154;SDS011;566;48.414;9.118;2022-09-17T03:25:40;8.77;;;4.88;;
1154;SDS011;566;48.414;9.118;2022-09-17T03:28:06;7.53;;;4.00;;
1154;SDS011;566;48.414;9.118;2022-09-17T03:30:31;6.68;;;3.78;;
1154;SDS011;566;48.414;9.118;2022-09-17T03:32:57;8.85;;;4.35;;
1154;SDS011;566;48.414;9.118;2022-09-17T03:35:23;10.40;;;4.80;;
1154;SDS011;566;48.414;9.118;2022-09-17T03:37:49;9.38;;;4.07;;
1154;SDS011;566;48.414;9.118;2022-09-17T03:40:14;11.55;;;4.40;;
1154;SDS011;566;48.414;9.118;2022-09-17T03:42:40;9.23;;;4.25;;
1154;SDS011;566;48.414;9.118;2022-09-17T03:45:06;8.75;;;4.20;;
1154;SDS011;566;48.414;9.118;2022-09-17T03:47:32;7.50;;;5.03;;
1154;SDS011;566;48.414;9.118;2022-09-17T03:49:58;9.20;;;5.10;;
1154;SDS011;566;48.414;9.118;2022-09-17T03:52:23;7.25;;;4.63;;
1154;SDS011;566;48.414;9.118;2022-09-17T03:54:54;7.95;;;5.30;;
1154;SDS011;566;48.414;9.118;2022-09-17T03:57:22;9.38;;;6.38;;
1154;SDS011;566;48.414;9.118;2022-09-17T03:59:51;10.05;;;7.07;;
1154;SDS011;566;48.414;9.118;2022-09-17T04:02:16;9.48;;;6.47;;
1154;SDS011;566;48.414;9.118;2022-09-17T04:04:42;8.85;;;6.22;;
1154;SDS011;566;48.414;9.118;2022-09-17T04:07:10;6.97;;;5.65;;
1154;SDS011;566;48.414;9.118;2022-09-17T04:09:36;9.20;;;5.80;;
1154;SDS011;566;48.414;9.118;2022-09-17T04:12:02;10.27;;;5.85;;
1154;SDS011;566;48.414;9.118;2022-09-17T04:14:30;10.40;;;7.22;;
1154;SDS011;566;48.414;9.118;2022-09-17T04:16:59;8.13;;;5.43;;
1154;SDS011;566;48.414;9.118;2022-09-17T04:19:25;9.80;;;6.18;;
1154;SDS011;566;48.414;9.118;2022-09-17T04:21:50;7.72;;;5.25;;
1154;SDS011;566;48.414;9.118;2022-09-17T04:24:17;10.90;;;6.78;;
1154;SDS011;566;48.414;9.118;2022-09-17T04:26:42;8.68;;;7.25;;
1154;SDS011;566;48.414;9.118;2022-09-17T04:29:08;9.35;;;7.15;;
1154;SDS011;566;48.414;9.118;2022-09-17T04:31:34;10.73;;;7.03;;
1154;SDS011;566;48.414;9.118;2022-09-17T04:34:03;11.07;;;7.78;;
1154;SDS011;566;48.414;9.118;2022-09-17T04:36:30;11.25;;;7.38;;
1154;SDS011;566;48.414;9.118;2022-09-17T04:38:56;10.10;;;6.85;;
1154;SDS011;566;48.414;9.118;2022-09-17T04:41:22;10.27;;;7.43;;
1154;SDS011;566;48.414;9.118;2022-09-17T04:43:47;11.48;;;7.18;;
1154;SDS011;566;48.414;9.118;2022-09-17T04:46:13;10.88;;;7.38;;
1154;SDS011;566;48.414;9.118;2022-09-17T04:48:40;11.43;;;7.50;;
1154;SDS011;566;48.414;9.118;2022-09-17T04:51:09;13.18;;;7.30;;
1154;SDS011;566;48.414;9.118;2022-09-17T04:53:38;10.40;;;7.43;;
1154;SDS011;566;48.414;9.118;2022-09-17T04:56:03;9.48;;;7.95;;
1154;SDS011;566;48.414;9.118;2022-09-17T04:58:29;12.80;;;7.97;;
1154;SDS011;566;48.414;9.118;2022-09-17T05:00:55;10.93;;;7.13;;
1154;SDS011;566;48.414;9.118;2022-09-17T05:03:23;12.18;;;7.25;;
1154;SDS011;566;48.414;9.118;2022-09-17T05:05:49;10.43;;;7.85;;
1154;SDS011;566;48.414;9.118;2022-09-17T05:08:15;9.70;;;7.55;;
1154;SDS011;566;48.414;9.118;2022-09-17T05:10:40;11.25;;;7.95;;
1154;SDS011;566;48.414;9.118;2022-09-17T05:13:06;10.75;;;7.65;;
1154;SDS011;566;48.414;9.118;2022-09-17T05:15:32;10.10;;;7.85;;
1154;SDS011;566;48.414;9.118;2022-09-17T05:17:57;11.85;;;7.60;;
1154;SDS011;566;48.414;9.118;2022-09-17T05:20:23;9.35;;;7.30;;
1154;SDS011;566;48.414;9.118;2022-09-17T05:22:49;11.98;;;8.55;;
1154;SDS011;566;48.414;9.118;2022-09-17T05:25:17;8.70;;;6.88;;
1154;SDS011;566;48.414;9.118;2022-09-17T05:27:44;11.95;;;7.60;;
1154;SDS011;566;48.414;9.118;2022-09-17T05:30:10;12.50;;;8.63;;
1154;SDS011;566;48.414;9.118;2022-09-17T05:32:37;10.57;;;8.02;;
1154;SDS011;566;48.414;9.118;2022-09-17T05:35:04;9.50;;;6.85;;
1154;SDS011;566;48.414;9.118;2022-09-17T05:37:31;11.18;;;5.75;;
1154;SDS011;566;48.414;9.118;2022-09-17T05:39:56;9.05;;;6.00;;
1154;SDS011;566;48.414;9.118;2022-09-17T05:42:22;9.15;;;5.20;;
1154;SDS011;566;48.414;9.118;2022-09-17T05:44:50;9.75;;;4.82;;
1154;SDS011;566;48.414;9.118;2022-09-17T05:47:16;5.82;;;4.57;;
1154;SDS011;566;48.414;9.118;2022-09-17T05:49:42;8.70;;;4.40;;
1154;SDS011;566;48.414;9.118;2022-09-17T05:52:07;10.18;;;5.13;;
1154;SDS011;566;48.414;9.118;2022-09-17T05:54:36;6.78;;;4.07;;
1154;SDS011;566;48.414;9.118;2022-09-17T05:57:01;6.25;;;4.10;;
1154;SDS011;566;48.414;9.118;2022-09-17T05:59:30;8.63;;;4.30;;
1154;SDS011;566;48.414;9.118;2022-09-17T06:01:56;6.07;;;3.45;;
1154;SDS011;566;48.414;9.118;2022-09-17T06:04:21;6.18;;;3.75;;
1154;SDS011;566;48.414;9.118;2022-09-17T06:06:47;8.85;;;3.83;;
1154;SDS011;566;48.414;9.118;2022-09-17T06:09:12;10.75;;;4.30;;
1154;SDS011;566;48.414;9.118;2022-09-17T06:11:38;6.70;;;3.80;;
1154;SDS011;566;48.414;9.118;2022-09-17T06:14:07;8.65;;;4.07;;
1154;SDS011;566;48.414;9.118;2022-09-17T06:16:33;7.57;;;3.85;;
1154;SDS011;566;48.414;9.118;2022-09-17T06:18:59;7.30;;;4.32;;
1154;SDS011;566;48.414;9.118;2022-09-17T06:21:25;9.60;;;4.72;;
1154;SDS011;566;48.414;9.118;2022-09-17T06:23:50;11.70;;;4.80;;
1154;SDS011;566;48.414;9.118;2022-09-17T06:26:20;8.52;;;4.93;;
1154;SDS011;566;48.414;9.118;2022-09-17T06:28:46;10.63;;;5.60;;
1154;SDS011;566;48.414;9.118;2022-09-17T06:31:11;9.85;;;5.82;;
1154;SDS011;566;48.414;9.118;2022-09-17T06:33:40;9.32;;;4.70;;
1154;SDS011;566;48.414;9.118;2022-09-17T06:36:09;8.15;;;3.92;;
1154;SDS011;566;48.414;9.118;2022-09-17T06:38:36;8.18;;;3.92;;
1154;SDS011;566;48.414;9.118;2022-09-17T06:41:02;9.65;;;4.40;;
1154;SDS011;566;48.414;9.118;2022-09-17T06:43:33;9.35;;;4.07;;
1154;SDS011;566;48.414;9.118;2022-09-17T06:45:59;11.45;;;4.30;;
1154;SDS011;566;48.414;9.118;2022-09-17T06:51:01;6.65;;;4.05;;
1154;SDS011;566;48.414;9.118;2022-09-17T06:53:28;12.80;;;3.70;;
1154;SDS011;566;48.414;9.118;2022-09-17T06:55:55;9.70;;;4.55;;
1154;SDS011;566;48.414;9.118;2022-09-17T06:58:22;9.25;;;3.75;;
1154;SDS011;566;48.414;9.118;2022-09-17T07:00:49;11.48;;;3.92;;
1154;SDS011;566;48.414;9.118;2022-09-17T07:03:15;5.90;;;3.35;;
1154;SDS011;566;48.414;9.118;2022-09-17T07:05:42;8.50;;;3.28;;
1154;SDS011;566;48.414;9.118;2022-09-17T07:08:09;10.40;;;4.15;;
1154;SDS011;566;48.414;9.118;2022-09-17T07:10:37;7.25;;;3.92;;
1154;SDS011;566;48.414;9.118;2022-09-17T07:13:03;8.90;;;3.90;;
1154;SDS011;566;48.414;9.118;2022-09-17T07:15:28;7.75;;;3.10;;
1154;SDS011;566;48.414;9.118;2022-09-17T07:17:54;6.75;;;3.30;;
1154;SDS011;566;48.414;9.118;2022-09-17T07:20:20;8.63;;;3.30;;
1154;SDS011;566;48.414;9.118;2022-09-17T07:22:53;8.07;;;3.50;;
1154;SDS011;566;48.414;9.118;2022-09-17T07:25:21;12.40;;;3.97;;
1154;SDS011;566;48.414;9.118;2022-09-17T07:27:47;12.13;;;3.10;;
1154;SDS011;566;48.414;9.118;2022-09-17T07:30:12;6.57;;;3.22;;
1154;SDS011;566;48.414;9.118;2022-09-17T07:32:39;10.63;;;4.47;;
1154;SDS011;566;48.414;9.118;2022-09-17T07:35:04;9.77;;;3.53;;
1154;SDS011;566;48.414;9.118;2022-09-17T07:37:34;10.10;;;3.50;;
1154;SDS011;566;48.414;9.118;2022-09-17T07:40:02;14.85;;;6.43;;
1154;SDS011;566;48.414;9.118;2022-09-17T07:42:31;15.73;;;5.40;;
1154;SDS011;566;48.414;9.118;2022-09-17T07:44:58;8.50;;;3.80;;
1154;SDS011;566;48.414;9.118;2022-09-17T07:47:23;11.15;;;4.43;;
1154;SDS011;566;48.414;9.118;2022-09-17T07:49:49;8.95;;;3.40;;
1154;SDS011;566;48.414;9.118;2022-09-17T07:52:17;10.00;;;3.53;;
1154;SDS011;566;48.414;9.118;2022-09-17T07:54:43;8.82;;;3.33;;
1154;SDS011;566;48.414;9.118;2022-09-17T07:57:09;8.32;;;3.83;;
1154;SDS011;566;48.414;9.118;2022-09-17T07:59:34;11.48;;;3.58;;
1154;SDS011;566;48.414;9.118;2022-09-17T08:02:00;11.07;;;3.83;;
1154;SDS011;566;48.414;9.118;2022-09-17T08:04:26;14.43;;;6.40;;
1154;SDS011;566;48.414;9.118;2022-09-17T08:06:51;11.93;;;5.63;;
1154;SDS011;566;48.414;9.118;2022-09-17T08:09:17;9.77;;;4.45;;
1154;SDS011;566;48.414;9.118;2022-09-17T08:11:43;9.55;;;3.80;;
1154;SDS011;566;48.414;9.118;2022-09-17T08:14:13;13.30;;;5.88;;
1154;SDS011;566;48.414;9.118;2022-09-17T08:16:39;12.15;;;6.63;;
1154;SDS011;566;48.414;9.118;2022-09-17T08:19:05;12.77;;;7.18;;
1154;SDS011;566;48.414;9.118;2022-09-17T08:21:31;11.95;;;5.75;;
1154;SDS011;566;48.414;9.118;2022-09-17T08:23:57;14.80;;;4.32;;
1154;SDS011;566;48.414;9.118;2022-09-17T08:26:22;8.82;;;3.17;;
1154;SDS011;566;48.414;9.118;2022-09-17T08:28:50;12.43;;;5.03;;
1154;SDS011;566;48.414;9.118;2022-09-17T08:31:19;12.88;;;4.50;;
1154;SDS011;566;48.414;9.118;2022-09-17T08:33:46;7.53;;;3.40;;
1154;SDS011;566;48.414;9.118;2022-09-17T08:36:12;9.85;;;3.42;;
1154;SDS011;566;48.414;9.118;2022-09-17T08:38:39;9.70;;;3.90;;
1154;SDS011;566;48.414;9.118;2022-09-17T08:43:35;9.02;;;3.55;;
1154;SDS011;566;48.414;9.118;2022-09-17T08:46:25;9.60;;;4.07;;
1154;SDS011;566;48.414;9.118;2022-09-17T08:49:00;10.30;;;4.82;;
1154;SDS011;566;48.414;9.118;2022-09-17T08:57:28;8.98;;;3.97;;
1154;SDS011;566;48.414;9.118;2022-09-17T09:00:15;9.20;;;3.78;;
1154;SDS011;566;48.414;9.118;2022-09-17T09:05:41;10.93;;;4.75;;
1154;SDS011;566;48.414;9.118;2022-09-17T09:11:15;5.88;;;2.90;;
1154;SDS011;566;48.414;9.118;2022-09-17T09:13:47;7.07;;;4.25;;
1154;SDS011;566;48.414;9.118;2022-09-17T09:16:19;8.18;;;3.35;;
1154;SDS011;566;48.414;9.118;2022-09-17T09:18:58;11.55;;;6.10;;
1154;SDS011;566;48.414;9.118;2022-09-17T09:27:23;3.85;;;1.70;;
1154;SDS011;566;48.414;9.118;2022-09-17T09:30:08;6.80;;;2.10;;
1154;SDS011;566;48.414;9.118;2022-09-17T09:35:19;8.18;;;2.13;;
1154;SDS011;566;48.414;9.118;2022-09-17T09:38:02;7.60;;;2.05;;
1154;SDS011;566;48.414;9.118;2022-09-17T09:54:40;7.85;;;3.53;;
1154;SDS011;566;48.414;9.118;2022-09-17T09:57:18;6.50;;;3.20;;
1154;SDS011;566;48.414;9.118;2022-09-17T10:02:52;5.90;;;1.98;;
1154;SDS011;566;48.414;9.118;2022-09-17T10:05:30;11.13;;;3.75;;
1154;SDS011;566;48.414;9.118;2022-09-17T10:07:56;8.05;;;3.42;;
1154;SDS011;566;48.414;9.118;2022-09-17T10:10:26;7.88;;;3.97;;
1154;SDS011;566;48.414;9.118;2022-09-17T10:13:03;8.93;;;2.47;;
1154;SDS011;566;48.414;9.118;2022-09-17T10:15:31;12.02;;;3.00;;
1154;SDS011;566;48.414;9.118;2022-09-17T10:18:15;10.95;;;3.58;;
1154;SDS011;566;48.414;9.118;2022-09-17T10:23:19;9.65;;;2.35;;
1154;SDS011;566;48.414;9.118;2022-09-17T10:25:45;12.95;;;4.00;;
1154;SDS011;566;48.414;9.118;2022-09-17T10:31:10;16.45;;;4.60;;
1154;SDS011;566;48.414;9.118;2022-09-17T10:33:45;8.23;;;3.10;;
1154;SDS011;566;48.414;9.118;2022-09-17T10:36:33;9.35;;;3.05;;
1154;SDS011;566;48.414;9.118;2022-09-17T10:41:56;7.82;;;2.33;;
1154;SDS011;566;48.414;9.118;2022-09-17T10:44:26;8.95;;;2.40;;
1154;SDS011;566;48.414;9.118;2022-09-17T10:47:17;6.97;;;2.05;;
1154;SDS011;566;48.414;9.118;2022-09-17T10:49:57;8.73;;;2.20;;
1154;SDS011;566;48.414;9.118;2022-09-17T10:52:33;7.32;;;2.50;;
1154;SDS011;566;48.414;9.118;2022-09-17T10:57:52;10.20;;;2.67;;
1154;SDS011;566;48.414;9.118;2022-09-17T11:00:25;9.27;;;2.90;;
1154;SDS011;566;48.414;9.118;2022-09-17T11:14:24;7.78;;;1.73;;
1154;SDS011;566;48.414;9.118;2022-09-17T11:22:53;6.03;;;1.65;;
1154;SDS011;566;48.414;9.118;2022-09-17T11:28:03;6.32;;;1.70;;
1154;SDS011;566;48.414;9.118;2022-09-17T11:31:11;6.20;;;1.75;;
1154;SDS011;566;48.414;9.118;2022-09-17T11:39:38;4.93;;;1.50;;
1154;SDS011;566;48.414;9.118;2022-09-17T11:42:13;6.78;;;2.08;;
1154;SDS011;566;48.414;9.118;2022-09-17T11:44:59;9.85;;;2.30;;
1154;SDS011;566;48.414;9.118;2022-09-17T11:47:38;9.80;;;3.42;;
1154;SDS011;566;48.414;9.118;2022-09-17T11:50:13;8.68;;;3.00;;
1154;SDS011;566;48.414;9.118;2022-09-17T11:52:44;9.07;;;2.65;;
1154;SDS011;566;48.414;9.118;2022-09-17T11:55:25;6.57;;;1.83;;
1154;SDS011;566;48.414;9.118;2022-09-17T11:58:13;7.68;;;1.73;;
1154;SDS011;566;48.414;9.118;2022-09-17T12:01:01;4.22;;;1.65;;
1154;SDS011;566;48.414;9.118;2022-09-17T12:03:33;5.13;;;1.35;;
1154;SDS011;566;48.414;9.118;2022-09-17T12:06:17;5.70;;;1.35;;
1154;SDS011;566;48.414;9.118;2022-09-17T12:08:52;5.28;;;1.85;;
1154;SDS011;566;48.414;9.118;2022-09-17T12:11:40;7.82;;;2.75;;
1154;SDS011;566;48.414;9.118;2022-09-17T12:17:15;6.38;;;2.25;;
1154;SDS011;566;48.414;9.118;2022-09-17T12:20:23;7.63;;;2.13;;
1154;SDS011;566;48.414;9.118;2022-09-17T12:22:54;7.80;;;1.83;;
1154;SDS011;566;48.414;9.118;2022-09-17T12:25:28;9.77;;;2.30;;
1154;SDS011;566;48.414;9.118;2022-09-17T12:28:03;7.40;;;1.67;;
1154;SDS011;566;48.414;9.118;2022-09-17T12:30:44;6.88;;;1.85;;
1154;SDS011;566;48.414;9.118;2022-09-17T12:33:30;21.10;;;2.78;;
1154;SDS011;566;48.414;9.118;2022-09-17T12:36:19;7.28;;;1.83;;
1154;SDS011;566;48.414;9.118;2022-09-17T12:42:21;45.30;;;5.13;;
1154;SDS011;566;48.414;9.118;2022-09-17T12:47:46;4.57;;;1.60;;
1154;SDS011;566;48.414;9.118;2022-09-17T12:50:41;10.43;;;1.60;;
1154;SDS011;566;48.414;9.118;2022-09-17T12:59:04;6.13;;;1.70;;
1154;SDS011;566;48.414;9.118;2022-09-17T13:09:54;5.82;;;1.40;;
1154;SDS011;566;48.414;9.118;2022-09-17T13:16:05;6.38;;;1.48;;
1154;SDS011;566;48.414;9.118;2022-09-17T13:18:26;5.13;;;1.23;;
1154;SDS011;566;48.414;9.118;2022-09-17T13:20:57;6.93;;;1.60;;
1154;SDS011;566;48.414;9.118;2022-09-17T13:23:33;6.55;;;1.70;;
1154;SDS011;566;48.414;9.118;2022-09-17T13:26:03;4.70;;;1.48;;
1154;SDS011;566;48.414;9.118;2022-09-17T13:28:41;7.40;;;2.08;;
1154;SDS011;566;48.414;9.118;2022-09-17T13:31:11;4.15;;;1.60;;
1154;SDS011;566;48.414;9.118;2022-09-17T13:33:58;5.03;;;1.80;;
1154;SDS011;566;48.414;9.118;2022-09-17T13:36:38;7.05;;;2.03;;
1154;SDS011;566;48.414;9.118;2022-09-17T13:45:10;4.55;;;1.70;;
1154;SDS011;566;48.414;9.118;2022-09-17T13:53:37;6.43;;;1.70;;
1154;SDS011;566;48.414;9.118;2022-09-17T13:55:39;5.43;;;1.90;;
1154;SDS011;566;48.414;9.118;2022-09-17T14:05:56;3.97;;;1.70;;
1154;SDS011;566;48.414;9.118;2022-09-17T14:16:34;4.88;;;2.00;;
1154;SDS011;566;48.414;9.118;2022-09-17T14:22:11;5.20;;;1.63;;
1154;SDS011;566;48.414;9.118;2022-09-17T14:24:48;6.10;;;1.80;;
1154;SDS011;566;48.414;9.118;2022-09-17T14:30:13;4.47;;;1.73;;
1154;SDS011;566;48.414;9.118;2022-09-17T14:32:43;5.25;;;1.90;;
1154;SDS011;566;48.414;9.118;2022-09-17T14:35:18;3.83;;;1.80;;
1154;SDS011;566;48.414;9.118;2022-09-17T14:38:20;5.45;;;2.03;;
1154;SDS011;566;48.414;9.118;2022-09-17T14:40:47;4.80;;;1.70;;
1154;SDS011;566;48.414;9.118;2022-09-17T14:46:00;4.38;;;1.65;;
1154;SDS011;566;48.414;9.118;2022-09-17T14:48:32;6.15;;;1.65;;
1154;SDS011;566;48.414;9.118;2022-09-17T14:53:46;6.00;;;1.58;;
1154;SDS011;566;48.414;9.118;2022-09-17T14:56:55;3.78;;;1.50;;
1154;SDS011;566;48.414;9.118;2022-09-17T14:59:43;5.35;;;1.40;;
1154;SDS011;566;48.414;9.118;2022-09-17T15:05:14;3.42;;;1.42;;
1154;SDS011;566;48.414;9.118;2022-09-17T15:10:13;4.75;;;1.38;;
1154;SDS011;566;48.414;9.118;2022-09-17T15:12:41;3.67;;;1.27;;
1154;SDS011;566;48.414;9.118;2022-09-17T15:15:16;5.85;;;1.50;;
1154;SDS011;566;48.414;9.118;2022-09-17T15:17:47;2.30;;;1.10;;
1154;SDS011;566;48.414;9.118;2022-09-17T15:20:23;3.78;;;1.30;;
1154;SDS011;566;48.414;9.118;2022-09-17T15:23:06;5.50;;;1.48;;
1154;SDS011;566;48.414;9.118;2022-09-17T15:25:40;4.45;;;1.27;;
1154;SDS011;566;48.414;9.118;2022-09-17T15:30:58;4.10;;;1.15;;
1154;SDS011;566;48.414;9.118;2022-09-17T15:33:25;4.97;;;1.83;;
1154;SDS011;566;48.414;9.118;2022-09-17T15:38:46;3.80;;;1.45;;
1154;SDS011;566;48.414;9.118;2022-09-17T15:43:52;5.10;;;1.40;;
1154;SDS011;566;48.414;9.118;2022-09-17T15:46:22;5.05;;;1.88;;
1154;SDS011;566;48.414;9.118;2022-09-17T15:48:53;5.20;;;1.70;;
1154;SDS011;566;48.414;9.118;2022-09-17T15:51:24;5.45;;;1.63;;
1154;SDS011;566;48.414;9.118;2022-09-17T15:53:56;4.72;;;1.90;;
1154;SDS011;566;48.414;9.118;2022-09-17T15:56:28;5.38;;;1.92;;
1154;SDS011;566;48.414;9.118;2022-09-17T15:59:00;6.30;;;2.42;;
1154;SDS011;566;48.414;9.118;2022-09-17T16:04:03;6.35;;;2.08;;
1154;SDS011;566;48.414;9.118;2022-09-17T16:07:25;4.93;;;1.88;;
1154;SDS011;566;48.414;9.118;2022-09-17T16:09:53;6.65;;;2.20;;
1154;SDS011;566;48.414;9.118;2022-09-17T16:12:23;5.85;;;2.10;;
1154;SDS011;566;48.414;9.118;2022-09-17T16:14:55;6.20;;;1.90;;
1154;SDS011;566;48.414;9.118;2022-09-17T16:17:23;6.05;;;2.53;;
1154;SDS011;566;48.414;9.118;2022-09-17T16:19:52;5.95;;;2.28;;
1154;SDS011;566;48.414;9.118;2022-09-17T16:22:32;10.07;;;3.05;;
1154;SDS011;566;48.414;9.118;2022-09-17T16:24:58;8.75;;;3.30;;
1154;SDS011;566;48.414;9.118;2022-09-17T16:27:25;10.38;;;3.90;;
1154;SDS011;566;48.414;9.118;2022-09-17T16:29:58;7.65;;;4.35;;
1154;SDS011;566;48.414;9.118;2022-09-17T16:32:30;8.50;;;3.90;;
1154;SDS011;566;48.414;9.118;2022-09-17T16:34:55;6.13;;;3.00;;
1154;SDS011;566;48.414;9.118;2022-09-17T16:37:21;8.50;;;3.45;;
1154;SDS011;566;48.414;9.118;2022-09-17T16:39:47;5.57;;;2.33;;
1154;SDS011;566;48.414;9.118;2022-09-17T16:42:13;8.93;;;3.90;;
1154;SDS011;566;48.414;9.118;2022-09-17T16:44:39;9.70;;;4.15;;
1154;SDS011;566;48.414;9.118;2022-09-17T16:47:04;11.13;;;5.85;;
1154;SDS011;566;48.414;9.118;2022-09-17T16:49:30;6.05;;;3.00;;
1154;SDS011;566;48.414;9.118;2022-09-17T16:51:58;7.35;;;2.53;;
1154;SDS011;566;48.414;9.118;2022-09-17T16:54:24;5.60;;;2.30;;
1154;SDS011;566;48.414;9.118;2022-09-17T16:56:49;6.70;;;2.50;;
1154;SDS011;566;48.414;9.118;2022-09-17T16:59:15;8.50;;;2.95;;
1154;SDS011;566;48.414;9.118;2022-09-17T17:01:41;5.03;;;2.22;;
1154;SDS011;566;48.414;9.118;2022-09-17T17:04:07;6.80;;;2.53;;
1154;SDS011;566;48.414;9.118;2022-09-17T17:06:38;5.18;;;2.60;;
1154;SDS011;566;48.414;9.118;2022-09-17T17:09:06;7.35;;;2.40;;
1154;SDS011;566;48.414;9.118;2022-09-17T17:11:32;7.32;;;2.67;;
1154;SDS011;566;48.414;9.118;2022-09-17T17:13:58;6.05;;;2.10;;
1154;SDS011;566;48.414;9.118;2022-09-17T17:16:25;4.47;;;2.08;;
1154;SDS011;566;48.414;9.118;2022-09-17T17:18:50;6.72;;;2.60;;
1154;SDS011;566;48.414;9.118;2022-09-17T17:21:17;7.93;;;2.58;;
1154;SDS011;566;48.414;9.118;2022-09-17T17:23:44;8.13;;;2.35;;
1154;SDS011;566;48.414;9.118;2022-09-17T17:26:12;5.32;;;2.25;;
1154;SDS011;566;48.414;9.118;2022-09-17T17:28:39;5.32;;;2.50;;
1154;SDS011;566;48.414;9.118;2022-09-17T17:31:07;5.10;;;2.15;;
1154;SDS011;566;48.414;9.118;2022-09-17T17:33:33;8.48;;;3.00;;
1154;SDS011;566;48.414;9.118;2022-09-17T17:36:08;7.82;;;3.00;;
1154;SDS011;566;48.414;9.118;2022-09-17T17:38:35;6.28;;;2.15;;
1154;SDS011;566;48.414;9.118;2022-09-17T17:41:02;5.25;;;2.53;;
1154;SDS011;566;48.414;9.118;2022-09-17T17:43:32;5.43;;;2.28;;
1154;SDS011;566;48.414;9.118;2022-09-17T17:45:57;5.10;;;1.83;;
1154;SDS011;566;48.414;9.118;2022-09-17T17:48:23;8.70;;;2.75;;
1154;SDS011;566;48.414;9.118;2022-09-17T17:50:49;7.05;;;3.80;;
1154;SDS011;566;48.414;9.118;2022-09-17T17:53:15;5.68;;;2.50;;
1154;SDS011;566;48.414;9.118;2022-09-17T17:55:40;5.75;;;3.10;;
1154;SDS011;566;48.414;9.118;2022-09-17T17:58:07;6.15;;;1.90;;
1154;SDS011;566;48.414;9.118;2022-09-17T18:00:32;4.60;;;2.13;;
1154;SDS011;566;48.414;9.118;2022-09-17T18:02:59;7.07;;;2.28;;
1154;SDS011;566;48.414;9.118;2022-09-17T18:05:28;5.32;;;1.83;;
1154;SDS011;566;48.414;9.118;2022-09-17T18:07:57;6.10;;;2.17;;
1154;SDS011;566;48.414;9.118;2022-09-17T18:10:24;6.32;;;2.33;;
1154;SDS011;566;48.414;9.118;2022-09-17T18:12:54;5.55;;;2.90;;
1154;SDS011;566;48.414;9.118;2022-09-17T18:15:20;4.72;;;2.13;;
1154;SDS011;566;48.414;9.118;2022-09-17T18:17:45;6.75;;;2.30;;
1154;SDS011;566;48.414;9.118;2022-09-17T18:20:14;5.82;;;2.05;;
1154;SDS011;566;48.414;9.118;2022-09-17T18:22:40;6.38;;;2.20;;
1154;SDS011;566;48.414;9.118;2022-09-17T18:25:11;5.80;;;2.40;;
1154;SDS011;566;48.414;9.118;2022-09-17T18:27:39;4.97;;;2.38;;
1154;SDS011;566;48.414;9.118;2022-09-17T18:30:07;4.63;;;2.40;;
1154;SDS011;566;48.414;9.118;2022-09-17T18:32:36;4.90;;;1.92;;
1154;SDS011;566;48.414;9.118;2022-09-17T18:35:06;7.05;;;2.58;;
1154;SDS011;566;48.414;9.118;2022-09-17T18:37:32;7.53;;;5.03;;
1154;SDS011;566;48.414;9.118;2022-09-17T18:39:59;4.95;;;2.13;;
1154;SDS011;566;48.414;9.118;2022-09-17T18:42:26;5.47;;;2.40;;
1154;SDS011;566;48.414;9.118;2022-09-17T18:44:51;5.78;;;1.98;;
1154;SDS011;566;48.414;9.118;2022-09-17T18:47:17;5.53;;;1.85;;
1154;SDS011;566;48.414;9.118;2022-09-17T18:49:43;5.80;;;2.22;;
1154;SDS011;566;48.414;9.118;2022-09-17T18:52:11;4.70;;;2.17;;
1154;SDS011;566;48.414;9.118;2022-09-17T18:54:37;5.47;;;2.50;;
1154;SDS011;566;48.414;9.118;2022-09-17T18:57:03;3.35;;;1.77;;
1154;SDS011;566;48.414;9.118;2022-09-17T18:59:29;5.07;;;1.70;;
1154;SDS011;566;48.414;9.118;2022-09-17T19:01:54;4.40;;;2.05;;
1154;SDS011;566;48.414;9.118;2022-09-17T19:04:21;5.32;;;1.95;;
1154;SDS011;566;48.414;9.118;2022-09-17T19:06:50;5.15;;;2.65;;
1154;SDS011;566;48.414;9.118;2022-09-17T19:09:15;5.68;;;2.00;;
1154;SDS011;566;48.414;9.118;2022-09-17T19:11:41;6.70;;;2.22;;
1154;SDS011;566;48.414;9.118;2022-09-17T19:14:09;4.72;;;2.10;;
1154;SDS011;566;48.414;9.118;2022-09-17T19:16:35;5.55;;;2.15;;